Terminal Aerodrome Forecast
Issued by NWS Wilmington, OH

Current Version | Previous Version | Graphics & Text | Print | Product List | Glossary On
Versions: 1 2 3 4 5 6 7 8 9 10 11 12 13 14 15 16 17 18 19 20 21 22 23 24 25
590
FTUS41 KILN 040902 AAB
TAFILN
TAF AMD
KILN 040902Z 0409/0506 24005KT 2SM BR SCT090
     FM041000 24009KT P6SM OVC100
     FM041500 24013G21KT 4SM -SHRA OVC040
     FM041900 24013G21KT 4SM -SHRA BR VCTS SCT015 OVC025CB
     FM042200 32013KT P6SM VCSH BKN015 OVC022
     FM050200 33012KT P6SM VCSH OVC015=

USA.gov is the U.S. government's official web portal to all federal, state and local government web resources and services.